Time;durP1;ratioP1;P1;durP2;ratioP2;P2;SDS_P1;SDS_P2;PMS_P1;PMS_P2;Temp;Humidity;BMP_temperature;BMP_pressure;BME280_temperature;BME280_humidity;BME280_pressure;Samples;Min_cycle;Max_cycle;Signal;HPM_P1;HPM_P2
2021/07/15 00:00:11;;;;;;;7.07;6.38;;;16.60;1.00;;;;;;5029626;28;20029;-88
2021/07/15 00:02:37;;;;;;;8.55;6.55;;;16.60;1.00;;;;;;5031836;28;20133;-88
2021/07/15 00:05:10;;;;;;;6.68;6.07;;;16.60;1.00;;;;;;5031880;28;20072;-88
2021/07/15 00:07:36;;;;;;;9.75;6.60;;;16.60;1.00;;;;;;5030427;28;20060;-88
2021/07/15 00:10:07;;;;;;;7.05;6.35;;;16.80;1.00;;;;;;5030121;28;20014;-88
2021/07/15 00:12:33;;;;;;;10.70;6.40;;;16.60;1.00;;;;;;5031430;28;20413;-88
2021/07/15 00:15:01;;;;;;;9.48;6.07;;;16.80;1.00;;;;;;5030377;28;20037;-88
2021/07/15 00:17:27;;;;;;;9.93;7.10;;;16.70;1.00;;;;;;5030955;28;20052;-88
2021/07/15 00:19:53;;;;;;;7.22;6.45;;;16.70;1.00;;;;;;5032741;28;20035;-88
2021/07/15 00:22:18;;;;;;;10.48;7.20;;;16.60;1.00;;;;;;5030001;28;20049;-88
2021/07/15 00:24:44;;;;;;;9.88;6.50;;;16.70;1.00;;;;;;5030118;28;20025;-88
2021/07/15 00:27:09;;;;;;;9.00;6.70;;;16.60;1.00;;;;;;5030771;28;20022;-88
2021/07/15 00:29:36;;;;;;;8.13;7.32;;;16.60;1.00;;;;;;5030781;28;20038;-88
2021/07/15 00:32:02;;;;;;;7.88;7.07;;;16.60;1.00;;;;;;5032192;28;20033;-89
2021/07/15 00:34:28;;;;;;;10.02;6.43;;;16.70;1.00;;;;;;5028170;28;20493;-88
2021/07/15 00:36:53;;;;;;;7.90;6.32;;;16.70;1.00;;;;;;5030421;28;20021;-88
2021/07/15 00:39:19;;;;;;;7.20;6.35;;;16.70;1.00;;;;;;5028630;28;20489;-89
2021/07/15 00:41:44;;;;;;;7.40;6.57;;;16.70;1.00;;;;;;5029401;28;20040;-88
2021/07/15 00:44:10;;;;;;;7.40;6.70;;;16.80;1.00;;;;;;5031462;28;20075;-88
2021/07/15 00:46:36;;;;;;;6.65;6.05;;;16.80;1.00;;;;;;5030603;28;20030;-88
2021/07/15 00:49:01;;;;;;;6.22;5.63;;;16.70;1.00;;;;;;5030000;28;20375;-88
2021/07/15 00:51:30;;;;;;;7.25;5.82;;;16.60;1.00;;;;;;5030512;28;20033;-88
2021/07/15 00:53:56;;;;;;;6.78;5.47;;;16.90;1.00;;;;;;5030062;28;20030;-88
2021/07/15 00:56:22;;;;;;;6.60;5.63;;;16.60;1.00;;;;;;5029922;28;20033;-88
2021/07/15 00:58:49;;;;;;;5.93;5.32;;;16.50;1.00;;;;;;5030130;28;20036;-89
2021/07/15 01:01:15;;;;;;;9.90;7.20;;;16.60;1.00;;;;;;5030201;28;20397;-88
2021/07/15 01:03:41;;;;;;;6.40;5.80;;;16.60;1.00;;;;;;5030202;28;20120;-89
2021/07/15 01:06:06;;;;;;;6.68;5.55;;;16.70;1.00;;;;;;5029860;28;20057;-88
2021/07/15 01:08:32;;;;;;;7.97;6.00;;;16.70;1.00;;;;;;5030316;28;20018;-88
2021/07/15 01:11:38;;;;;;;7.15;6.38;;;16.70;1.00;;;;;;5030854;28;20059;-88
2021/07/15 01:14:14;;;;;;;7.10;6.40;;;16.70;1.00;;;;;;5009698;28;20160;-88
2021/07/15 01:16:52;;;;;;;9.18;6.03;;;16.70;1.00;;;;;;5010095;28;20065;-88
2021/07/15 01:19:36;;;;;;;7.10;6.00;;;16.80;1.00;;;;;;5009664;28;20030;-88
2021/07/15 01:22:20;;;;;;;8.32;6.32;;;16.70;1.00;;;;;;5009324;28;20052;-88
2021/07/15 01:25:36;;;;;;;6.78;6.05;;;16.70;1.00;;;;;;5005256;28;20044;-88
2021/07/15 01:28:26;;;;;;;7.38;6.30;;;16.70;1.00;;;;;;4932252;29;20035;-88
2021/07/15 01:31:01;;;;;;;7.00;6.40;;;16.70;1.00;;;;;;4951415;29;20558;-88
2021/07/15 01:33:28;;;;;;;7.60;6.38;;;16.70;1.00;;;;;;4951073;29;20055;-88
2021/07/15 01:35:59;;;;;;;7.88;6.40;;;16.70;1.00;;;;;;4951091;29;20039;-88
2021/07/15 01:38:30;;;;;;;8.45;6.93;;;16.70;1.00;;;;;;4934228;29;20648;-88
2021/07/15 01:41:07;;;;;;;8.25;6.15;;;16.60;1.00;;;;;;4949231;29;20047;-88
2021/07/15 01:43:55;;;;;;;6.93;6.32;;;16.60;1.00;;;;;;4951054;29;20078;-89
2021/07/15 01:46:21;;;;;;;7.15;6.20;;;16.70;1.00;;;;;;4950631;29;20032;-88
2021/07/15 01:48:48;;;;;;;7.20;6.50;;;16.70;1.00;;;;;;4953834;28;20087;-88
2021/07/15 01:51:14;;;;;;;8.30;7.00;;;16.70;1.00;;;;;;4966883;28;20814;-88
2021/07/15 01:53:40;;;;;;;7.32;6.63;;;16.70;1.00;;;;;;4969684;28;20046;-88
2021/07/15 01:56:10;;;;;;;6.38;5.78;;;16.70;1.00;;;;;;4969724;28;20043;-89
2021/07/15 01:58:38;;;;;;;8.85;6.60;;;16.70;1.00;;;;;;4970148;28;20515;-89
2021/07/15 02:01:06;;;;;;;7.05;6.28;;;16.70;1.00;;;;;;4972065;28;20035;-88
2021/07/15 02:03:35;;;;;;;9.57;6.97;;;16.80;1.00;;;;;;5029897;28;20030;-88
2021/07/15 02:06:03;;;;;;;7.13;6.53;;;16.80;1.00;;;;;;5029445;28;20034;-88
2021/07/15 02:08:31;;;;;;;9.60;6.88;;;16.80;1.00;;;;;;5029865;28;20029;-88
2021/07/15 02:10:57;;;;;;;8.20;7.35;;;16.80;1.00;;;;;;5031088;28;20535;-88
2021/07/15 02:13:24;;;;;;;10.57;7.40;;;16.70;1.00;;;;;;5027748;28;20030;-88
2021/07/15 02:15:51;;;;;;;7.78;6.63;;;16.80;1.00;;;;;;5028408;28;20029;-88
2021/07/15 02:18:20;;;;;;;7.65;6.90;;;16.80;1.00;;;;;;5029473;28;20017;-88
2021/07/15 02:20:49;;;;;;;7.93;6.88;;;16.80;1.00;;;;;;5014272;28;20083;-88
2021/07/15 02:23:15;;;;;;;7.40;6.63;;;16.70;1.00;;;;;;5031730;28;20094;-88
2021/07/15 02:25:41;;;;;;;8.60;6.50;;;16.80;1.00;;;;;;5028546;28;20037;-87
2021/07/15 02:28:10;;;;;;;8.02;6.88;;;16.80;1.00;;;;;;5029387;28;20044;-88
2021/07/15 02:30:36;;;;;;;7.97;6.70;;;16.70;1.00;;;;;;5029503;28;20069;-88
2021/07/15 02:33:09;;;;;;;7.40;6.65;;;16.90;1.00;;;;;;5029037;28;20130;-88
2021/07/15 02:35:45;;;;;;;8.77;6.75;;;16.70;1.00;;;;;;5029247;28;20334;-88
2021/07/15 02:38:13;;;;;;;7.93;6.90;;;16.70;1.00;;;;;;5027150;28;20017;-88
2021/07/15 02:40:40;;;;;;;7.35;6.70;;;16.70;1.00;;;;;;5026864;28;20060;-89
2021/07/15 02:43:05;;;;;;;7.90;7.10;;;16.70;1.00;;;;;;5027669;28;20029;-88
2021/07/15 02:45:31;;;;;;;7.50;6.75;;;16.70;1.00;;;;;;5031375;28;20033;-88
2021/07/15 02:47:57;;;;;;;8.48;7.05;;;16.70;1.00;;;;;;5033125;28;20525;-88
2021/07/15 02:50:24;;;;;;;8.07;7.28;;;16.70;1.00;;;;;;5033751;28;20033;-87
2021/07/15 02:52:51;;;;;;;7.85;7.15;;;16.70;1.00;;;;;;5033491;28;20517;-88
2021/07/15 02:55:17;;;;;;;8.20;7.43;;;16.60;1.00;;;;;;5031544;28;20026;-88
2021/07/15 02:57:42;;;;;;;8.93;7.72;;;16.70;1.00;;;;;;5032218;28;20490;-88
2021/07/15 03:00:11;;;;;;;7.75;7.05;;;16.60;1.00;;;;;;5032725;28;20033;-88
2021/07/15 03:02:51;;;;;;;8.45;7.65;;;16.70;1.00;;;;;;5032614;28;20065;-89
2021/07/15 03:05:42;;;;;;;7.88;7.18;;;16.70;1.00;;;;;;5030596;28;20036;-88
2021/07/15 03:08:13;;;;;;;7.90;7.20;;;16.70;1.00;;;;;;5033709;28;20041;-88
2021/07/15 03:10:40;;;;;;;9.88;7.05;;;16.90;1.00;;;;;;5030820;28;20044;-88
2021/07/15 03:13:13;;;;;;;8.80;7.68;;;16.70;1.00;;;;;;5030835;28;20084;-89
2021/07/15 03:15:41;;;;;;;8.23;7.50;;;16.70;1.00;;;;;;5030764;28;20033;-88
2021/07/15 03:18:08;;;;;;;10.50;7.22;;;16.70;1.00;;;;;;5031172;28;20045;-88
2021/07/15 03:20:39;;;;;;;9.07;7.32;;;16.60;1.00;;;;;;5030736;28;20091;-88
2021/07/15 03:23:09;;;;;;;7.82;7.13;;;16.60;1.00;;;;;;5033780;28;20064;-88
2021/07/15 03:25:35;;;;;;;7.85;6.97;;;16.60;1.00;;;;;;5030107;28;20038;-88
2021/07/15 03:28:04;;;;;;;8.23;7.00;;;16.60;1.00;;;;;;5032086;28;20021;-88
2021/07/15 03:30:31;;;;;;;8.45;7.40;;;16.60;1.00;;;;;;5032312;28;20029;-89
2021/07/15 03:32:58;;;;;;;8.07;7.25;;;16.70;1.00;;;;;;5032188;28;20445;-88
2021/07/15 03:35:25;;;;;;;7.93;7.03;;;16.60;1.00;;;;;;5032666;28;20124;-88
2021/07/15 03:37:52;;;;;;;10.60;7.53;;;16.60;1.00;;;;;;5032912;28;20021;-88
2021/07/15 03:40:27;;;;;;;7.75;6.72;;;16.60;1.00;;;;;;5030966;28;20870;-88
2021/07/15 03:42:54;;;;;;;7.50;6.80;;;16.60;1.00;;;;;;5031466;28;20596;-89
2021/07/15 03:45:21;;;;;;;7.88;7.18;;;16.60;1.00;;;;;;5031470;28;20080;-88
2021/07/15 03:47:49;;;;;;;7.82;7.13;;;16.60;1.00;;;;;;5031546;28;20026;-88
2021/07/15 03:50:19;;;;;;;8.90;6.82;;;16.60;1.00;;;;;;5033672;28;20053;-88
2021/07/15 03:52:48;;;;;;;8.20;6.57;;;16.60;1.00;;;;;;5030136;28;20025;-89
2021/07/15 03:55:15;;;;;;;8.68;7.85;;;16.60;1.00;;;;;;5029685;28;20394;-88
2021/07/15 03:57:45;;;;;;;7.55;6.82;;;16.60;1.00;;;;;;5028723;28;20031;-88
2021/07/15 04:00:12;;;;;;;7.18;6.47;;;16.60;1.00;;;;;;5030325;28;20018;-89
2021/07/15 04:02:40;;;;;;;8.50;6.93;;;16.60;1.00;;;;;;5031091;28;20038;-88
2021/07/15 04:05:08;;;;;;;7.60;6.90;;;16.60;1.00;;;;;;5032620;28;20025;-88
2021/07/15 04:07:34;;;;;;;7.75;6.95;;;16.60;1.00;;;;;;5029676;28;20053;-88
2021/07/15 04:10:01;;;;;;;7.15;6.45;;;16.60;1.00;;;;;;5030896;28;20029;-88
2021/07/15 04:12:29;;;;;;;8.02;6.75;;;16.60;1.00;;;;;;5031211;28;20108;-88
2021/07/15 04:15:00;;;;;;;7.55;6.85;;;16.70;1.00;;;;;;5031365;28;20520;-88
2021/07/15 04:17:36;;;;;;;7.40;6.70;;;16.60;1.00;;;;;;5031918;28;20028;-88
2021/07/15 04:20:09;;;;;;;7.45;6.43;;;16.60;1.00;;;;;;5030048;28;20402;-88
2021/07/15 04:22:37;;;;;;;7.22;5.88;;;16.60;1.00;;;;;;5029324;28;20049;-88
2021/07/15 04:25:04;;;;;;;7.53;6.75;;;16.60;1.00;;;;;;5030947;28;20025;-88
2021/07/15 04:27:31;;;;;;;9.48;6.45;;;16.50;1.00;;;;;;5030508;28;20037;-88
2021/07/15 04:30:08;;;;;;;7.70;6.85;;;16.60;1.00;;;;;;5032290;28;20126;-88
2021/07/15 04:32:50;;;;;;;7.20;6.53;;;16.60;1.00;;;;;;5031452;28;20112;-89
2021/07/15 04:35:16;;;;;;;7.97;6.65;;;16.70;1.00;;;;;;5028765;28;20033;-88
2021/07/15 04:37:43;;;;;;;9.30;7.10;;;16.70;1.00;;;;;;5029983;28;20474;-88
2021/07/15 04:40:12;;;;;;;7.13;6.43;;;16.70;1.00;;;;;;5030708;28;20378;-88
2021/07/15 04:42:39;;;;;;;7.57;6.68;;;16.70;1.00;;;;;;5030332;28;20068;-88
2021/07/15 04:45:07;;;;;;;7.70;7.05;;;16.70;1.00;;;;;;5030855;28;20364;-88
2021/07/15 04:47:33;;;;;;;7.45;6.72;;;16.70;1.00;;;;;;5030512;28;20474;-89
2021/07/15 04:49:59;;;;;;;7.80;6.78;;;16.70;1.00;;;;;;5030821;28;20397;-88
2021/07/15 04:52:26;;;;;;;7.88;7.03;;;16.70;1.00;;;;;;5029500;28;20029;-88
2021/07/15 04:54:54;;;;;;;8.07;7.32;;;16.80;1.00;;;;;;5030231;28;20053;-88
2021/07/15 04:57:20;;;;;;;7.65;6.88;;;16.80;1.00;;;;;;5030198;28;20485;-89
2021/07/15 04:59:46;;;;;;;8.98;6.72;;;16.80;1.00;;;;;;5029445;28;20022;-88
2021/07/15 05:02:13;;;;;;;9.85;7.30;;;16.80;1.00;;;;;;5027707;28;20037;-88
2021/07/15 05:04:38;;;;;;;7.72;6.93;;;16.80;1.00;;;;;;5030534;28;20489;-88
2021/07/15 05:07:05;;;;;;;7.88;7.07;;;16.90;1.00;;;;;;5028428;28;20053;-88
2021/07/15 05:09:30;;;;;;;8.20;7.50;;;16.90;1.00;;;;;;5027550;28;20038;-88
2021/07/15 05:11:56;;;;;;;10.02;7.30;;;16.90;1.00;;;;;;5028890;28;20446;-89
2021/07/15 05:14:22;;;;;;;7.65;6.93;;;17.30;1.00;;;;;;5031746;28;20025;-88
2021/07/15 05:16:47;;;;;;;8.43;7.60;;;16.90;1.00;;;;;;5028158;28;20036;-88
2021/07/15 05:19:13;;;;;;;7.70;7.00;;;17.00;1.00;;;;;;5029871;28;20529;-88
2021/07/15 05:21:39;;;;;;;8.05;7.25;;;17.00;1.00;;;;;;5029827;28;20044;-89
2021/07/15 05:24:04;;;;;;;8.77;7.47;;;16.90;1.00;;;;;;5029047;28;20021;-88
2021/07/15 05:26:31;;;;;;;7.88;7.07;;;16.90;1.00;;;;;;5030224;28;20029;-88
2021/07/15 05:28:57;;;;;;;9.60;8.68;;;16.90;1.00;;;;;;5029955;28;20600;-88
2021/07/15 05:31:23;;;;;;;8.00;7.20;;;16.90;1.00;;;;;;5029744;28;20080;-88
2021/07/15 05:33:49;;;;;;;10.65;6.90;;;16.90;1.00;;;;;;5029519;28;20466;-88
2021/07/15 05:36:15;;;;;;;8.07;7.38;;;17.00;1.00;;;;;;5030176;28;20512;-88
2021/07/15 05:38:42;;;;;;;7.93;7.13;;;17.00;1.00;;;;;;5029090;28;20034;-88
2021/07/15 05:41:09;;;;;;;8.80;7.03;;;17.00;1.00;;;;;;5031871;28;20037;-88
2021/07/15 05:43:35;;;;;;;8.48;7.57;;;17.00;1.00;;;;;;5028511;28;20041;-88
2021/07/15 05:46:02;;;;;;;9.57;7.80;;;17.00;1.00;;;;;;5029519;28;20029;-88
2021/07/15 05:48:28;;;;;;;9.00;8.10;;;17.00;1.00;;;;;;5027761;28;20041;-88
2021/07/15 05:50:54;;;;;;;8.95;8.05;;;17.00;1.00;;;;;;5026644;28;20025;-88
2021/07/15 05:53:19;;;;;;;8.63;7.82;;;17.00;1.00;;;;;;5029331;28;20033;-88
2021/07/15 05:55:45;;;;;;;9.55;8.57;;;17.00;1.00;;;;;;5028875;28;20119;-87
2021/07/15 05:58:11;;;;;;;10.30;8.48;;;17.00;1.00;;;;;;5029908;28;20083;-87
2021/07/15 06:00:36;;;;;;;9.57;8.27;;;17.00;1.00;;;;;;5029148;28;20065;-87
2021/07/15 06:03:02;;;;;;;8.65;7.75;;;17.00;1.00;;;;;;5029242;28;20386;-91
2021/07/15 06:05:30;;;;;;;9.00;8.20;;;17.00;1.00;;;;;;5030732;28;20040;-89
2021/07/15 06:07:59;;;;;;;9.63;7.97;;;17.00;1.00;;;;;;5030670;28;20477;-89
2021/07/15 06:10:26;;;;;;;9.30;8.50;;;17.00;1.00;;;;;;5029881;28;20120;-90
2021/07/15 06:12:52;;;;;;;13.65;8.70;;;16.90;1.00;;;;;;5029433;28;20029;-89
2021/07/15 06:15:17;;;;;;;11.73;8.90;;;17.00;1.00;;;;;;5027851;28;20033;-89
2021/07/15 06:17:43;;;;;;;9.32;7.90;;;17.00;1.00;;;;;;5028203;28;20462;-90
2021/07/15 06:20:13;;;;;;;12.00;9.23;;;17.10;1.00;;;;;;5033414;28;20026;-87
2021/07/15 06:22:43;;;;;;;9.30;8.40;;;17.00;1.00;;;;;;5032566;28;20099;-87
2021/07/15 06:25:09;;;;;;;9.68;8.77;;;17.10;1.00;;;;;;5033095;28;20055;-87
2021/07/15 06:27:37;;;;;;;9.10;8.30;;;17.20;1.00;;;;;;5033070;28;20638;-87
2021/07/15 06:30:08;;;;;;;9.02;8.18;;;17.20;1.00;;;;;;5031329;28;20072;-87
2021/07/15 06:32:34;;;;;;;10.10;8.80;;;17.20;1.00;;;;;;5031895;28;20017;-87
2021/07/15 06:35:00;;;;;;;10.73;8.05;;;17.30;1.00;;;;;;5033304;28;20078;-87
2021/07/15 06:37:32;;;;;;;9.68;8.68;;;17.40;1.00;;;;;;5029973;28;20108;-87
2021/07/15 06:39:59;;;;;;;9.38;8.38;;;17.40;1.00;;;;;;5032350;28;20074;-88
2021/07/15 06:42:25;;;;;;;12.30;9.05;;;17.50;1.00;;;;;;5028719;28;20041;-88
2021/07/15 06:44:51;;;;;;;10.20;9.20;;;17.50;1.00;;;;;;5028008;28;20034;-88
2021/07/15 06:47:17;;;;;;;10.40;9.40;;;17.60;1.00;;;;;;5034323;28;20033;-88
2021/07/15 06:49:43;;;;;;;11.13;9.65;;;17.50;1.00;;;;;;5033378;28;20026;-88
2021/07/15 06:52:09;;;;;;;12.90;10.02;;;17.70;1.00;;;;;;5033728;28;20041;-88
2021/07/15 06:54:35;;;;;;;12.93;10.50;;;17.70;1.00;;;;;;5031212;28;20021;-88
2021/07/15 06:57:00;;;;;;;11.43;9.45;;;17.70;1.00;;;;;;5019465;28;20033;-88
2021/07/15 06:59:29;;;;;;;11.88;10.65;;;17.80;1.00;;;;;;5033216;28;20018;-88
2021/07/15 07:01:55;;;;;;;10.90;9.90;;;17.80;1.00;;;;;;5034458;28;20040;-87
2021/07/15 07:04:21;;;;;;;14.65;11.45;;;17.80;1.00;;;;;;5030101;28;20031;-86
2021/07/15 07:06:47;;;;;;;11.80;10.65;;;17.80;1.00;;;;;;5032153;28;20535;-87
2021/07/15 07:09:13;;;;;;;11.68;10.55;;;17.90;1.00;;;;;;5032756;28;20030;-87
2021/07/15 07:11:38;;;;;;;11.48;10.35;;;17.80;1.00;;;;;;5032452;28;20567;-87
2021/07/15 07:14:04;;;;;;;13.30;11.52;;;17.90;1.00;;;;;;5026428;28;20021;-87
2021/07/15 07:16:30;;;;;;;13.10;10.77;;;17.90;1.00;;;;;;5024865;28;20053;-87
2021/07/15 07:18:56;;;;;;;11.30;10.10;;;17.90;1.00;;;;;;5029710;28;20025;-88
2021/07/15 07:21:22;;;;;;;11.05;9.93;;;17.90;1.00;;;;;;5032231;28;20106;-90
2021/07/15 07:23:47;;;;;;;11.73;10.52;;;17.90;1.00;;;;;;5030953;28;20052;-90
2021/07/15 07:26:13;;;;;;;12.90;11.02;;;17.90;1.00;;;;;;5028928;28;20030;-89
2021/07/15 07:28:38;;;;;;;13.02;10.70;;;17.90;1.00;;;;;;5031966;28;20026;-89
2021/07/15 07:31:04;;;;;;;12.18;10.88;;;17.90;1.00;;;;;;5030247;28;20025;-89
2021/07/15 07:33:30;;;;;;;13.57;11.57;;;17.90;1.00;;;;;;5032342;28;20039;-89
2021/07/15 07:35:56;;;;;;;13.77;11.70;;;18.00;1.00;;;;;;5032276;28;20080;-88
2021/07/15 07:38:22;;;;;;;13.60;11.88;;;17.90;1.00;;;;;;5019864;28;20065;-87
2021/07/15 07:40:47;;;;;;;13.02;11.73;;;17.90;1.00;;;;;;5026757;28;20087;-88
2021/07/15 07:43:13;;;;;;;12.60;11.30;;;17.90;1.00;;;;;;5024788;28;20634;-88
2021/07/15 07:45:39;;;;;;;12.50;11.20;;;17.90;1.00;;;;;;5025292;28;20044;-87
2021/07/15 07:48:04;;;;;;;11.13;10.02;;;17.90;1.00;;;;;;5022863;28;20493;-88
2021/07/15 07:50:30;;;;;;;14.02;10.77;;;18.00;1.00;;;;;;5024711;28;20375;-87
2021/07/15 07:52:57;;;;;;;14.75;12.75;;;18.00;1.00;;;;;;5025436;28;20052;-88
2021/07/15 07:55:23;;;;;;;16.23;11.32;;;18.00;1.00;;;;;;5025079;28;20510;-88
2021/07/15 07:57:49;;;;;;;12.68;11.20;;;18.00;1.00;;;;;;5027004;28;20076;-88
2021/07/15 08:00:16;;;;;;;13.00;11.63;;;18.00;1.00;;;;;;5023330;28;20558;-89
2021/07/15 08:02:43;;;;;;;11.45;10.32;;;17.90;1.00;;;;;;5026003;28;20040;-89
2021/07/15 08:05:10;;;;;;;12.45;11.13;;;17.70;1.00;;;;;;5022449;28;20087;-88
2021/07/15 08:07:38;;;;;;;12.40;11.20;;;17.70;1.00;;;;;;5026042;28;20055;-88
2021/07/15 08:10:07;;;;;;;14.02;11.43;;;17.70;1.00;;;;;;5023715;28;20017;-88
2021/07/15 08:12:32;;;;;;;14.15;10.95;;;17.60;1.00;;;;;;5019485;28;20025;-89
2021/07/15 08:14:58;;;;;;;12.13;10.85;;;17.70;1.00;;;;;;5023002;28;20037;-89
2021/07/15 08:17:23;;;;;;;13.30;11.43;;;17.70;1.00;;;;;;5022265;28;20398;-90
2021/07/15 08:19:49;;;;;;;12.32;11.02;;;17.70;1.00;;;;;;5023332;28;20033;-91
2021/07/15 08:22:15;;;;;;;13.98;11.02;;;17.60;1.00;;;;;;5022696;28;20042;-89
2021/07/15 08:24:41;;;;;;;13.27;11.98;;;17.30;1.00;;;;;;5023503;28;20026;-90
2021/07/15 08:27:06;;;;;;;14.10;11.93;;;17.40;1.00;;;;;;5025105;28;20108;-89
2021/07/15 08:29:32;;;;;;;13.80;12.27;;;17.50;1.00;;;;;;5023135;28;20013;-89
2021/07/15 08:31:59;;;;;;;13.50;12.20;;;17.60;1.00;;;;;;5023833;28;20034;-89
2021/07/15 08:34:25;;;;;;;13.52;12.15;;;17.60;1.00;;;;;;5023187;28;20026;-88
2021/07/15 08:36:51;;;;;;;16.63;12.38;;;17.60;1.00;;;;;;5022340;28;20053;-88
2021/07/15 08:39:17;;;;;;;14.90;13.40;;;17.70;1.00;;;;;;5022431;28;20056;-90
2021/07/15 08:41:45;;;;;;;14.52;13.05;;;17.90;1.00;;;;;;5022693;28;20041;-91
2021/07/15 08:44:13;;;;;;;14.13;12.63;;;17.70;1.00;;;;;;5020501;28;20017;-91
2021/07/15 08:46:40;;;;;;;14.60;12.93;;;17.70;1.00;;;;;;5017361;28;20121;-87
2021/07/15 08:49:07;;;;;;;14.13;11.88;;;17.70;1.00;;;;;;5019982;28;20486;-91
2021/07/15 08:51:33;;;;;;;16.77;12.48;;;18.10;1.00;;;;;;5024524;28;20166;-91
2021/07/15 08:53:59;;;;;;;14.35;11.68;;;17.70;1.00;;;;;;5028948;28;20021;-91
2021/07/15 08:56:37;;;;;;;13.85;12.45;;;17.70;1.00;;;;;;5023566;28;20037;-92
2021/07/15 08:59:07;;;;;;;14.02;12.52;;;17.70;1.00;;;;;;5024296;28;20025;-91
2021/07/15 09:01:34;;;;;;;15.02;11.60;;;17.80;1.00;;;;;;5024207;28;20516;-92
2021/07/15 09:04:04;;;;;;;13.00;11.65;;;17.70;1.00;;;;;;5022662;28;20482;-92
2021/07/15 09:06:30;;;;;;;12.98;11.77;;;17.70;1.00;;;;;;5024602;28;20041;-92
2021/07/15 09:08:56;;;;;;;13.43;12.13;;;17.70;1.00;;;;;;5021822;28;20490;-92
2021/07/15 09:11:22;;;;;;;12.57;11.27;;;17.70;1.00;;;;;;5023495;28;20190;-93
2021/07/15 09:13:49;;;;;;;14.05;12.30;;;17.80;1.00;;;;;;5025769;28;20121;-89
2021/07/15 09:16:17;;;;;;;11.90;10.63;;;17.80;1.00;;;;;;5024236;28;20029;-89
2021/07/15 09:19:03;;;;;;;11.55;10.38;;;17.80;1.00;;;;;;5025468;28;20515;-89
2021/07/15 09:21:32;;;;;;;14.05;12.65;;;17.60;1.00;;;;;;5024348;28;20108;-90
2021/07/15 09:24:00;;;;;;;12.35;11.15;;;17.70;1.00;;;;;;5023726;28;20098;-90
2021/07/15 09:26:31;;;;;;;12.40;11.20;;;17.80;1.00;;;;;;5021083;28;20025;-89
2021/07/15 09:29:16;;;;;;;13.98;11.68;;;17.80;1.00;;;;;;5026680;28;20018;-87
2021/07/15 09:31:59;;;;;;;13.23;11.93;;;17.80;1.00;;;;;;5030333;28;20068;-88
2021/07/15 09:34:27;;;;;;;14.27;11.77;;;17.90;1.00;;;;;;5028081;28;20052;-87
2021/07/15 09:36:54;;;;;;;13.27;11.93;;;18.00;1.00;;;;;;5029976;28;20079;-87
2021/07/15 09:39:28;;;;;;;12.23;11.10;;;18.10;1.00;;;;;;5025567;28;20108;-91
2021/07/15 09:42:11;;;;;;;13.75;11.45;;;18.10;1.00;;;;;;5024208;28;20041;-91
2021/07/15 09:44:38;;;;;;;15.10;12.23;;;18.10;1.00;;;;;;5021683;28;20116;-91
2021/07/15 09:47:05;;;;;;;13.00;10.60;;;18.10;1.00;;;;;;5020251;28;20093;-92
2021/07/15 09:49:36;;;;;;;14.63;12.35;;;18.10;1.00;;;;;;5021317;28;20030;-92
2021/07/15 09:52:03;;;;;;;13.13;11.15;;;18.10;1.00;;;;;;5020535;28;20507;-90
2021/07/15 09:54:29;;;;;;;13.00;11.57;;;18.10;1.00;;;;;;5023449;28;20033;-88
2021/07/15 09:56:55;;;;;;;13.68;11.30;;;18.10;1.00;;;;;;5032350;28;20029;-95
2021/07/15 09:59:21;;;;;;;12.93;11.63;;;18.10;1.00;;;;;;5027082;28;20083;-93
2021/07/15 10:01:48;;;;;;;13.10;11.82;;;18.10;1.00;;;;;;5028855;28;20442;-94
2021/07/15 10:04:24;;;;;;;11.35;10.20;;;18.10;1.00;;;;;;5034625;28;20120;-96
2021/07/15 10:06:51;;;;;;;11.32;10.18;;;18.10;1.00;;;;;;5034662;28;20128;-96
2021/07/15 10:09:21;;;;;;;12.55;10.98;;;18.30;1.00;;;;;;5031314;28;20048;-96
2021/07/15 10:11:47;;;;;;;12.40;10.98;;;18.40;1.00;;;;;;5031639;28;20018;-90
2021/07/15 10:14:15;;;;;;;12.30;11.15;;;18.40;1.00;;;;;;5035501;28;20045;-90
2021/07/15 10:16:46;;;;;;;11.85;10.65;;;18.50;1.00;;;;;;5025419;28;20029;-89
2021/07/15 10:19:22;;;;;;;11.65;10.55;;;18.50;1.00;;;;;;5028921;28;20033;-88
2021/07/15 10:22:03;;;;;;;14.40;9.13;;;18.60;1.00;;;;;;5029341;28;20172;-88
2021/07/15 10:24:30;;;;;;;10.40;9.32;;;18.60;1.00;;;;;;5028039;28;20038;-90
2021/07/15 10:27:05;;;;;;;11.82;10.07;;;18.50;1.00;;;;;;5032491;28;20053;-91
2021/07/15 10:29:32;;;;;;;12.80;10.40;;;18.60;1.00;;;;;;5033369;28;20532;-88
2021/07/15 10:31:58;;;;;;;11.02;10.02;;;18.80;1.00;;;;;;5030666;28;20025;-90
2021/07/15 10:34:29;;;;;;;11.18;9.93;;;19.00;1.00;;;;;;5034013;28;20032;-91
2021/07/15 10:36:57;;;;;;;10.43;9.43;;;19.00;1.00;;;;;;5025689;28;20559;-90
2021/07/15 10:39:26;;;;;;;10.55;9.55;;;19.00;1.00;;;;;;5022138;28;20032;-93
2021/07/15 10:41:54;;;;;;;10.52;9.30;;;19.10;1.00;;;;;;5027618;28;20040;-92
2021/07/15 10:44:21;;;;;;;11.40;9.20;;;19.20;1.00;;;;;;5027257;28;20025;-92
2021/07/15 10:46:47;;;;;;;10.25;8.77;;;19.40;1.00;;;;;;5033325;28;20096;-89
2021/07/15 10:49:14;;;;;;;10.38;9.15;;;19.10;1.00;;;;;;5027953;28;20017;-91
2021/07/15 10:51:44;;;;;;;10.65;9.35;;;19.20;1.00;;;;;;5025203;28;20099;-91
2021/07/15 10:54:12;;;;;;;10.73;9.65;;;19.20;1.00;;;;;;5017456;28;20041;-90
2021/07/15 10:56:38;;;;;;;11.05;10.05;;;19.40;1.00;;;;;;5023190;28;20533;-87
2021/07/15 10:59:28;;;;;;;10.98;9.48;;;19.50;1.00;;;;;;5034364;28;20474;-87
2021/07/15 11:01:59;;;;;;;11.30;10.10;;;19.10;1.00;;;;;;5033771;28;20075;-86
2021/07/15 11:04:39;;;;;;;10.23;9.13;;;18.80;1.00;;;;;;5032962;28;20565;-88
2021/07/15 11:07:23;;;;;;;10.27;9.18;;;18.50;1.00;;;;;;5030035;28;20041;-86
2021/07/15 11:09:51;;;;;;;9.82;8.82;;;18.70;1.00;;;;;;5029909;28;20504;-85
2021/07/15 11:12:32;;;;;;;11.43;10.13;;;18.70;1.00;;;;;;5029655;28;20108;-85
2021/07/15 11:15:12;;;;;;;11.32;9.88;;;18.90;1.00;;;;;;5031815;28;20414;-85
2021/07/15 11:17:47;;;;;;;11.10;9.80;;;18.80;1.00;;;;;;5030628;28;20034;-87
2021/07/15 11:20:27;;;;;;;10.38;9.38;;;18.60;1.00;;;;;;5034250;28;20075;-85
2021/07/15 11:23:09;;;;;;;16.17;11.45;;;18.50;1.00;;;;;;5032270;28;20042;-85
2021/07/15 11:25:39;;;;;;;12.68;10.77;;;18.50;1.00;;;;;;5030436;28;20121;-84
2021/07/15 11:28:11;;;;;;;11.90;10.52;;;18.60;1.00;;;;;;5031788;28;20099;-85
2021/07/15 11:30:36;;;;;;;10.40;9.40;;;18.60;1.00;;;;;;5031511;28;20049;-85
2021/07/15 11:33:23;;;;;;;12.30;11.10;;;18.60;1.00;;;;;;5031629;28;20108;-85
2021/07/15 11:35:51;;;;;;;10.70;9.68;;;18.40;1.00;;;;;;5014218;28;20064;-85
2021/07/15 11:38:25;;;;;;;12.40;8.98;;;18.30;1.00;;;;;;5029968;28;20037;-85
2021/07/15 11:40:51;;;;;;;10.80;9.48;;;18.20;1.00;;;;;;5031213;28;20057;-85
2021/07/15 11:43:52;;;;;;;11.50;9.32;;;18.20;1.00;;;;;;5030192;28;20076;-85
2021/07/15 11:46:22;;;;;;;13.38;10.05;;;18.10;1.00;;;;;;5027686;28;20129;-85
2021/07/15 11:48:58;;;;;;;11.75;10.55;;;18.10;1.00;;;;;;5031077;28;20408;-85
2021/07/15 11:51:37;;;;;;;12.43;10.88;;;18.10;1.00;;;;;;5030893;28;20521;-85
2021/07/15 11:54:43;;;;;;;12.77;10.77;;;18.20;1.00;;;;;;5031092;28;20040;-85
2021/07/15 11:57:14;;;;;;;11.57;10.48;;;18.30;1.00;;;;;;5018247;28;20021;-85
2021/07/15 11:59:48;;;;;;;12.43;11.23;;;18.30;1.00;;;;;;5031131;28;20084;-85
2021/07/15 12:02:26;;;;;;;12.23;10.93;;;18.40;1.00;;;;;;5033291;28;20037;-85
2021/07/15 12:05:12;;;;;;;15.50;13.38;;;18.40;1.00;;;;;;5031733;28;20060;-85
2021/07/15 12:07:44;;;;;;;15.35;12.93;;;18.40;1.00;;;;;;5030766;28;20132;-85
2021/07/15 12:10:19;;;;;;;19.90;15.23;;;18.50;1.00;;;;;;5028864;28;20030;-85
2021/07/15 12:12:45;;;;;;;15.07;13.45;;;18.50;1.00;;;;;;5031065;28;20025;-84
2021/07/15 12:15:16;;;;;;;15.23;11.98;;;18.40;1.00;;;;;;5030876;28;20082;-85
2021/07/15 12:17:42;;;;;;;12.02;10.73;;;19.00;1.00;;;;;;5030789;28;20041;-85
2021/07/15 12:20:09;;;;;;;12.20;11.00;;;18.80;1.00;;;;;;5032765;28;20033;-85
2021/07/15 12:22:50;;;;;;;12.38;10.90;;;18.50;1.00;;;;;;5028914;28;20520;-85
2021/07/15 12:25:24;;;;;;;10.50;9.40;;;18.40;1.00;;;;;;5030084;28;20500;-85
2021/07/15 12:27:54;;;;;;;10.50;9.30;;;18.40;1.00;;;;;;5028357;28;20025;-85
2021/07/15 12:30:23;;;;;;;10.68;9.23;;;18.50;1.00;;;;;;5030903;28;20105;-85
2021/07/15 12:32:59;;;;;;;11.38;10.27;;;18.50;1.00;;;;;;5014773;28;20026;-85
2021/07/15 12:35:29;;;;;;;10.40;9.30;;;18.70;1.00;;;;;;5028633;28;20128;-85
2021/07/15 12:37:56;;;;;;;11.23;10.13;;;18.70;1.00;;;;;;5031816;28;20082;-85
2021/07/15 12:40:31;;;;;;;12.70;10.50;;;18.70;1.00;;;;;;5029348;28;20386;-85
2021/07/15 12:43:21;;;;;;;9.38;8.38;;;18.60;1.00;;;;;;5030344;28;20429;-85
2021/07/15 12:45:48;;;;;;;9.20;8.27;;;18.40;1.00;;;;;;5030348;28;20045;-84
2021/07/15 12:48:16;;;;;;;10.23;9.27;;;18.30;1.00;;;;;;5029786;28;20061;-85
2021/07/15 12:50:43;;;;;;;12.25;10.35;;;18.20;1.00;;;;;;5030556;28;20076;-85
2021/07/15 12:53:18;;;;;;;11.82;10.75;;;18.40;1.00;;;;;;5032616;28;20036;-84
2021/07/15 12:55:45;;;;;;;12.23;10.63;;;18.40;1.00;;;;;;5030358;28;20112;-85
2021/07/15 12:58:12;;;;;;;12.27;10.98;;;18.60;1.00;;;;;;5027728;28;20029;-85